Date,TemperatureHighF,TemperatureAvgF,TemperatureLowF,DewpointHighF,DewpointAvgF,DewpointLowF,HumidityHigh,HumidityAvg,HumidityLow,PressureMaxIn,PressureMinIn,WindSpeedMaxMPH,WindSpeedAvgMPH,GustSpeedMaxMPH,PrecipitationSumIn
2013-2-1,78.0,45.2,28.0,-99.9,-99.9,-99.9,0,0,100,0.00,40.00,2,1,3,0.00
2013-2-2,80.0,46.7,29.0,-99.9,-99.9,-99.9,0,0,100,0.00,40.00,5,1,7,0.00
2013-2-3,63.0,50.8,40.0,-99.9,-99.9,-99.9,0,0,100,0.00,40.00,5,-35,7,0.00
2013-2-4,80.0,54.6,41.0,-99.9,-99.9,-99.9,0,0,100,0.00,40.00,3,1,4,0.00
2013-2-5,83.0,50.3,36.0,-99.9,-99.9,-99.9,0,0,100,0.00,40.00,2,-130,3,0.00
2013-2-6,75.0,54.1,36.0,-99.9,-99.9,-99.9,0,0,100,0.00,40.00,3,1,4,0.00
2013-2-7,74.0,51.1,38.0,-99.9,-99.9,-99.9,0,0,100,0.00,40.00,6,1,6,0.00
2013-2-8,73.0,57.8,43.0,-99.9,-99.9,-99.9,0,0,100,0.00,40.00,8,4,10,0.00
2013-2-9,73.0,48.6,32.0,-99.9,-99.9,-99.9,0,0,100,0.00,40.00,8,2,11,0.00
2013-2-10,68.0,41.1,29.0,-99.9,-99.9,-99.9,0,0,100,0.00,40.00,1,0,3,0.00
2013-2-11,77.0,45.1,29.0,-99.9,-99.9,-99.9,0,0,100,0.00,40.00,4,2,6,0.00
2013-2-12,62.0,40.9,28.0,-99.9,-99.9,-99.9,0,0,100,0.00,40.00,4,2,6,0.00
2013-2-13,72.0,41.4,21.0,-99.9,-99.9,-99.9,0,0,100,0.00,40.00,2,1,5,0.00
2013-2-14,74.0,42.1,22.0,-99.9,-99.9,-99.9,0,0,100,0.00,40.00,2,1,4,0.00
2013-2-15,67.0,46.0,33.0,-99.9,-99.9,-99.9,0,0,100,0.00,40.00,6,2,7,0.00
2013-2-16,74.0,48.2,26.0,-99.9,-99.9,-99.9,0,0,100,0.00,40.00,3,-49,3,0.00
2013-2-17,78.0,54.8,28.0,-99.9,-99.9,-99.9,0,0,100,0.00,40.00,3,1,5,0.00
2013-2-18,73.0,54.6,37.0,-99.9,-99.9,-99.9,0,0,100,0.00,40.00,5,2,8,0.00
2013-2-19,59.0,48.4,44.0,-99.9,-99.9,-99.9,0,0,100,0.00,40.00,6,3,6,0.00
2013-2-20,75.0,48.9,32.0,-99.9,-99.9,-99.9,0,0,100,0.00,40.00,7,4,14,0.00
2013-2-21,59.0,38.2,27.0,-99.9,-99.9,-99.9,0,0,100,0.00,40.00,5,2,7,0.00
2013-2-22,66.0,43.2,28.0,-99.9,-99.9,-99.9,0,0,100,0.00,40.00,5,2,7,0.00
2013-2-23,67.0,45.3,27.0,-99.9,-99.9,-99.9,0,0,100,0.00,40.00,4,2,7,0.00
2013-2-24,69.0,43.1,31.0,-99.9,-99.9,-99.9,0,0,100,0.00,40.00,11,5,13,0.00
2013-2-25,67.0,40.1,21.0,-99.9,-99.9,-99.9,0,0,100,0.00,40.00,6,1,6,0.00
2013-2-26,71.0,41.3,29.0,-99.9,-99.9,-99.9,0,0,100,0.00,40.00,5,2,8,0.00
2013-2-27,59.0,41.5,27.0,-99.9,-99.9,-99.9,0,0,100,0.00,40.00,6,2,6,0.00
2013-2-28,71.0,45.4,31.0,-99.9,-99.9,-99.9,0,0,100,0.00,40.00,6,2,6,0.00